Willow Springs, California
Current Conditions -  °F | °C
As of 3:56 PM on Monday 20 Oct 2014 (Local Time) from KWJF Reporting Station
Clear Clear  
Wind Chill: 81°   Ceiling: Unl
Heat Index: 81°   Visibility: 10mi
Dew Point: 42°   Wind: 16mph
Humidity: 25%   Direction: 210°SSW
Pressure: 29.89"   Gusts: NA
Location:  34.8931°N, 118.353°W
Report Text: KWJF 202256Z 21014KT 10SM CLR 27/06 A2989 RMK AO2 SLP109 T02720056
Loading
Personal Weather Stations






























Interactive Weather Map
Tropical Storm Tracking
New forecast layout! Learn more

10-Day Weather Forecast

Advertisements
Track Severe Weather on mobile